^^
Saratoga-Weather Station Historical Data
Daily Summary for June 2, 2021 Units:  Both    English   Metric
Daily Weekly Monthly Yearly Custom
  High: Low: Average:
Temperature: 50.7 °F /  10.4 °C 44.4 °F /  6.9 °C 48.4 °F /  9.1 °C
Dew Point: 35.2 °F /  1.8 °C 33.8 °F /  1 °C 34.7 °F /  1.5 °C
Humidity: 68% 52% 59%
Wind Speed: 6mph /  9.7km/h - 2.7mph /  4.3km/h
Wind Gust: 9mph /  14.5km/h - -
Wind- - WNW
Pressure: 30 in /  1014.2 hPa 29.9 in /  1012.9 hPa -
Precipitation: 0 in /  0.0 mm    
Historical Graphs
 
 
Tabular Data for June 2, 2021
Time Temperature Dew Point Pressure Wind Wind Speed Wind Gust Humidity Rainfall Rate (Hourly) solar
00:02 50.7 °F /  10.4 °C 33.8 °F /  1 °C 29.9in /  1012.9hPa West 0.9mph /  1.4km/h 7mph /  11.3km/h 52% 0in /  0.0mm 0 W/m2
00:07 50.7 °F /  10.4 °C 33.8 °F /  1 °C 29.9in /  1012.9hPa West 4mph /  6.4km/h 4mph /  6.4km/h 52% 0in /  0.0mm 0 W/m2
00:12 50.7 °F /  10.4 °C 34.2 °F /  1.2 °C 29.9in /  1012.9hPa North 2mph /  3.2km/h 4mph /  6.4km/h 53% 0in /  0.0mm 0 W/m2
00:17 50.7 °F /  10.4 °C 34.2 °F /  1.2 °C 29.9in /  1012.9hPa WNW 2.9mph /  4.7km/h 5mph /  8km/h 53% 0in /  0.0mm 0 W/m2
00:22 50.7 °F /  10.4 °C 34.2 °F /  1.2 °C 29.9in /  1012.9hPa NW 4mph /  6.4km/h 7mph /  11.3km/h 53% 0in /  0.0mm 0 W/m2
00:27 50.5 °F /  10.3 °C 34 °F /  1.1 °C 29.9in /  1012.9hPa WNW 2mph /  3.2km/h 3mph /  4.8km/h 53% 0in /  0.0mm 0 W/m2
00:32 50.4 °F /  10.2 °C 34.3 °F /  1.3 °C 29.9in /  1013.2hPa West 2mph /  3.2km/h 5mph /  8km/h 54% 0in /  0.0mm 0 W/m2
00:37 50.2 °F /  10.1 °C 34.2 °F /  1.2 °C 29.9in /  1012.9hPa WSW 2mph /  3.2km/h 4mph /  6.4km/h 54% 0in /  0.0mm 0 W/m2
00:42 50.2 °F /  10.1 °C 34.2 °F /  1.2 °C 29.9in /  1013.2hPa WNW 2.9mph /  4.7km/h 5mph /  8km/h 54% 0in /  0.0mm 0 W/m2
00:47 50.2 °F /  10.1 °C 34.7 °F /  1.5 °C 29.9in /  1013.2hPa West 2.9mph /  4.7km/h 4mph /  6.4km/h 55% 0in /  0.0mm 0 W/m2
00:52 50 °F /  10 °C 34.5 °F /  1.4 °C 29.9in /  1013.2hPa WNW 4mph /  6.4km/h 6mph /  9.7km/h 55% 0in /  0.0mm 0 W/m2
00:57 49.8 °F /  9.9 °C 34.3 °F /  1.3 °C 29.9in /  1013.2hPa SW 6mph /  9.7km/h 9mph /  14.5km/h 55% 0in /  0.0mm 0 W/m2
01:02 49.8 °F /  9.9 °C 34.3 °F /  1.3 °C 29.9in /  1013.2hPa WSW 2.9mph /  4.7km/h 4mph /  6.4km/h 55% 0in /  0.0mm 0 W/m2
01:07 49.6 °F /  9.8 °C 34.2 °F /  1.2 °C 29.9in /  1013.2hPa West 2mph /  3.2km/h 9mph /  14.5km/h 55% 0in /  0.0mm 0 W/m2
01:12 49.6 °F /  9.8 °C 34.5 °F /  1.4 °C 29.9in /  1013.2hPa WNW 2mph /  3.2km/h 2mph /  3.2km/h 56% 0in /  0.0mm 0 W/m2
01:17 49.6 °F /  9.8 °C 34.5 °F /  1.4 °C 29.9in /  1013.2hPa West 4mph /  6.4km/h 4mph /  6.4km/h 56% 0in /  0.0mm 0 W/m2
01:22 49.6 °F /  9.8 °C 34.5 °F /  1.4 °C 29.9in /  1013.2hPa WNW 2mph /  3.2km/h 4mph /  6.4km/h 56% 0in /  0.0mm 0 W/m2
01:27 49.5 °F /  9.7 °C 34.3 °F /  1.3 °C 29.9in /  1013.2hPa West 2.9mph /  4.7km/h 7mph /  11.3km/h 56% 0in /  0.0mm 0 W/m2
01:32 49.5 °F /  9.7 °C 34.9 °F /  1.6 °C 29.9in /  1013.2hPa WNW 4mph /  6.4km/h 4mph /  6.4km/h 57% 0in /  0.0mm 0 W/m2
01:37 49.3 °F /  9.6 °C 34.2 °F /  1.2 °C 29.9in /  1013.2hPa West 2.9mph /  4.7km/h 7mph /  11.3km/h 56% 0in /  0.0mm 0 W/m2
01:42 49.3 °F /  9.6 °C 34.7 °F /  1.5 °C 29.9in /  1013.2hPa WNW 2mph /  3.2km/h 6mph /  9.7km/h 57% 0in /  0.0mm 0 W/m2
01:47 49.3 °F /  9.6 °C 34.7 °F /  1.5 °C 29.9in /  1013.5hPa WNW 4mph /  6.4km/h 7mph /  11.3km/h 57% 0in /  0.0mm 0 W/m2
01:52 49.1 °F /  9.5 °C 34.9 °F /  1.6 °C 29.9in /  1013.5hPa West 2.9mph /  4.7km/h 3mph /  4.8km/h 58% 0in /  0.0mm 0 W/m2
01:57 48.9 °F /  9.4 °C 34.9 °F /  1.6 °C 29.9in /  1013.5hPa West 2mph /  3.2km/h 6mph /  9.7km/h 58% 0in /  0.0mm 0 W/m2
02:02 48.7 °F /  9.3 °C 34.7 °F /  1.5 °C 29.9in /  1013.5hPa WNW 2mph /  3.2km/h 3mph /  4.8km/h 58% 0in /  0.0mm 0 W/m2
02:07 48.7 °F /  9.3 °C 34.7 °F /  1.5 °C 29.9in /  1013.5hPa WSW 2mph /  3.2km/h 4mph /  6.4km/h 58% 0in /  0.0mm 0 W/m2
02:12 48.7 °F /  9.3 °C 35.1 °F /  1.7 °C 29.9in /  1013.5hPa WNW 2mph /  3.2km/h 6mph /  9.7km/h 59% 0in /  0.0mm 0 W/m2
02:17 48.6 °F /  9.2 °C 34.9 °F /  1.6 °C 29.9in /  1013.5hPa West 2.9mph /  4.7km/h 7mph /  11.3km/h 59% 0in /  0.0mm 0 W/m2
02:22 48.6 °F /  9.2 °C 34.9 °F /  1.6 °C 29.9in /  1013.5hPa West 2mph /  3.2km/h 6mph /  9.7km/h 59% 0in /  0.0mm 0 W/m2
02:27 48.4 °F /  9.1 °C 34.7 °F /  1.5 °C 29.9in /  1013.5hPa West 2.9mph /  4.7km/h 5mph /  8km/h 59% 0in /  0.0mm 0 W/m2
02:32 48.2 °F /  9 °C 34.9 °F /  1.6 °C 29.9in /  1013.5hPa NW 4.9mph /  7.9km/h 8mph /  12.9km/h 60% 0in /  0.0mm 0 W/m2
02:37 48 °F /  8.9 °C 34.9 °F /  1.6 °C 29.9in /  1013.5hPa WNW 2.9mph /  4.7km/h 5mph /  8km/h 60% 0in /  0.0mm 0 W/m2
02:42 47.8 °F /  8.8 °C 34.7 °F /  1.5 °C 29.9in /  1013.5hPa WSW 2mph /  3.2km/h 4mph /  6.4km/h 60% 0in /  0.0mm 0 W/m2
02:47 47.8 °F /  8.8 °C 35.1 °F /  1.7 °C 29.9in /  1013.5hPa WNW 2mph /  3.2km/h 4mph /  6.4km/h 61% 0in /  0.0mm 0 W/m2
02:52 47.7 °F /  8.7 °C 34.9 °F /  1.6 °C 29.9in /  1013.5hPa West 2.9mph /  4.7km/h 4mph /  6.4km/h 61% 0in /  0.0mm 0 W/m2
02:57 47.5 °F /  8.6 °C 34.7 °F /  1.5 °C 29.9in /  1013.5hPa WNW 4mph /  6.4km/h 4mph /  6.4km/h 61% 0in /  0.0mm 0 W/m2
03:02 47.5 °F /  8.6 °C 35.1 °F /  1.7 °C 29.9in /  1013.5hPa NW 2.9mph /  4.7km/h 4mph /  6.4km/h 62% 0in /  0.0mm 0 W/m2
03:07 47.1 °F /  8.4 °C 34.7 °F /  1.5 °C 29.9in /  1013.5hPa West 4mph /  6.4km/h 5mph /  8km/h 62% 0in /  0.0mm 0 W/m2
03:12 47.1 °F /  8.4 °C 34.7 °F /  1.5 °C 29.9in /  1013.5hPa WSW 2mph /  3.2km/h 4mph /  6.4km/h 62% 0in /  0.0mm 0 W/m2
03:17 46.9 °F /  8.3 °C 34.5 °F /  1.4 °C 29.9in /  1013.5hPa West 4mph /  6.4km/h 4mph /  6.4km/h 62% 0in /  0.0mm 0 W/m2
03:22 46.8 °F /  8.2 °C 34.9 °F /  1.6 °C 29.9in /  1013.5hPa West 2mph /  3.2km/h 5mph /  8km/h 63% 0in /  0.0mm 0 W/m2
03:27 46.8 °F /  8.2 °C 35.2 °F /  1.8 °C 29.9in /  1013.5hPa West 2.9mph /  4.7km/h 6mph /  9.7km/h 64% 0in /  0.0mm 0 W/m2
03:32 46.6 °F /  8.1 °C 35.1 °F /  1.7 °C 29.9in /  1013.5hPa West 2mph /  3.2km/h 2mph /  3.2km/h 64% 0in /  0.0mm 0 W/m2
03:37 46.4 °F /  8 °C 34.9 °F /  1.6 °C 29.9in /  1013.5hPa West 2.9mph /  4.7km/h 3mph /  4.8km/h 64% 0in /  0.0mm 0 W/m2
03:42 46.2 °F /  7.9 °C 35.1 °F /  1.7 °C 29.9in /  1013.5hPa WNW 2mph /  3.2km/h 7mph /  11.3km/h 65% 0in /  0.0mm 0 W/m2
03:47 45.9 °F /  7.7 °C 34.7 °F /  1.5 °C 29.9in /  1013.9hPa WNW 2.9mph /  4.7km/h 4mph /  6.4km/h 65% 0in /  0.0mm 0 W/m2
03:52 45.7 °F /  7.6 °C 35.1 °F /  1.7 °C 29.9in /  1013.9hPa West 2.9mph /  4.7km/h 7mph /  11.3km/h 66% 0in /  0.0mm 0 W/m2
03:57 45.3 °F /  7.4 °C 34.7 °F /  1.5 °C 29.9in /  1013.9hPa WNW 2mph /  3.2km/h 3mph /  4.8km/h 66% 0in /  0.0mm 0 W/m2
04:02 45.3 °F /  7.4 °C 34.7 °F /  1.5 °C 29.9in /  1013.9hPa West 2mph /  3.2km/h 3mph /  4.8km/h 66% 0in /  0.0mm 0 W/m2
04:07 45.1 °F /  7.3 °C 34.9 °F /  1.6 °C 29.9in /  1013.9hPa WNW 0.9mph /  1.4km/h 6mph /  9.7km/h 67% 0in /  0.0mm 0 W/m2
04:12 45 °F /  7.2 °C 34.7 °F /  1.5 °C 29.9in /  1013.9hPa NW 2mph /  3.2km/h 4mph /  6.4km/h 67% 0in /  0.0mm 0 W/m2
04:17 44.8 °F /  7.1 °C 34.9 °F /  1.6 °C 30in /  1014.2hPa WNW 2mph /  3.2km/h 4mph /  6.4km/h 68% 0in /  0.0mm 0 W/m2
04:22 44.4 °F /  6.9 °C 34.5 °F /  1.4 °C 30in /  1014.2hPa West 2mph /  3.2km/h 4mph /  6.4km/h 68% 0in /  0.0mm 0 W/m2
Juneau County Weather
Compliments of Weather Underground - 4 mb